createdAt,value
2023-03-03T00:00:58.297Z,24.27
2023-03-03T00:03:30.144Z,24.75
2023-03-03T00:06:04.560Z,25.27
2023-03-03T00:08:38.456Z,25.25
2023-03-03T00:11:14.356Z,22.83
2023-03-03T00:13:49.321Z,23.65
2023-03-03T00:16:24.380Z,25.52
2023-03-03T00:21:51.412Z,24.15
2023-03-03T00:24:37.429Z,24.52
2023-03-03T00:27:31.663Z,24.85
2023-03-03T00:30:05.152Z,23.83
2023-03-03T00:32:46.999Z,23.48
2023-03-03T00:35:27.290Z,24.75
2023-03-03T00:38:12.852Z,24.77
2023-03-03T00:40:45.117Z,25.90
2023-03-03T00:43:24.918Z,26.27
2023-03-03T00:45:59.460Z,24.45
2023-03-03T00:48:42.858Z,23.58
2023-03-03T00:51:23.565Z,26.58
2023-03-03T00:54:23.138Z,24.45
2023-03-03T00:56:54.888Z,24.45
2023-03-03T00:59:26.828Z,25.75
2023-03-03T01:01:58.705Z,25.35
2023-03-03T01:04:30.748Z,24.48
2023-03-03T01:07:02.752Z,24.38
2023-03-03T01:09:34.445Z,24.50
2023-03-03T01:12:06.415Z,24.33
2023-03-03T01:14:39.383Z,25.50
2023-03-03T01:17:14.881Z,25.33
2023-03-03T01:19:46.726Z,23.40
2023-03-03T01:22:18.770Z,24.60
2023-03-03T01:24:50.517Z,24.75
2023-03-03T01:27:25.321Z,24.48
2023-03-03T01:32:29.316Z,23.70
2023-03-03T01:35:01.218Z,25.05
2023-03-03T01:37:36.129Z,25.48
2023-03-03T01:40:16.198Z,25.10
2023-03-03T01:42:47.995Z,25.55
2023-03-03T01:45:27.162Z,25.70
2023-03-03T01:48:07.283Z,25.67
2023-03-03T01:50:47.816Z,26.00
2023-03-03T01:53:23.905Z,25.83
2023-03-03T01:55:56.450Z,25.75
2023-03-03T01:58:31.328Z,26.92
2023-03-03T02:03:39.250Z,24.80
2023-03-03T02:06:15.677Z,26.05
2023-03-03T02:09:13.584Z,25.70
2023-03-03T02:11:47.485Z,25.30
2023-03-03T02:14:19.583Z,26.40
2023-03-03T02:16:51.829Z,26.30
2023-03-03T02:20:00.210Z,25.27
2023-03-03T02:22:51.489Z,24.90
2023-03-03T02:25:51.475Z,26.83
2023-03-03T02:28:32.566Z,25.50
2023-03-03T02:33:52.995Z,26.00
2023-03-03T02:36:36.632Z,26.58
2023-03-03T02:39:18.192Z,26.80
2023-03-03T02:42:11.955Z,26.83
2023-03-03T02:44:53.742Z,26.13
2023-03-03T02:49:57.526Z,25.75
2023-03-03T02:52:29.276Z,26.60
2023-03-03T02:57:37.019Z,28.35
2023-03-03T03:00:12.299Z,27.92
2023-03-03T03:02:44.441Z,26.58
2023-03-03T03:05:19.491Z,27.77
2023-03-03T03:07:51.301Z,26.65
2023-03-03T03:10:26.697Z,26.92
2023-03-03T03:15:30.227Z,25.55
2023-03-03T03:18:04.144Z,26.42
2023-03-03T03:20:40.110Z,27.92
2023-03-03T03:23:13.104Z,28.13
2023-03-03T03:25:47.640Z,27.85
2023-03-03T03:28:26.666Z,29.33
2023-03-03T03:31:00.749Z,28.15
2023-03-03T03:33:35.302Z,27.63
2023-03-03T03:36:09.199Z,27.88
2023-03-03T03:38:40.994Z,26.70
2023-03-03T03:41:14.271Z,28.95
2023-03-03T03:43:45.999Z,28.35
2023-03-03T03:46:17.850Z,28.98
2023-03-03T03:48:49.660Z,26.95
2023-03-03T03:51:24.531Z,27.33
2023-03-03T03:53:58.476Z,28.75
2023-03-03T03:56:30.406Z,28.80
2023-03-03T03:59:07.256Z,26.92
2023-03-03T04:01:39.520Z,27.75
2023-03-03T04:04:11.445Z,28.63
2023-03-03T04:06:44.206Z,26.67
2023-03-03T04:09:17.031Z,27.38
2023-03-03T04:11:53.482Z,26.63
2023-03-03T04:14:26.495Z,26.52
2023-03-03T04:17:08.882Z,26.30
2023-03-03T04:19:40.703Z,27.20
2023-03-03T04:22:13.716Z,26.25
2023-03-03T04:24:45.692Z,27.23
2023-03-03T04:27:17.508Z,27.77
2023-03-03T04:29:49.714Z,32.85
2023-03-03T04:32:24.414Z,31.77
2023-03-03T04:35:21.562Z,28.55
2023-03-03T04:37:56.302Z,30.92
2023-03-03T04:40:33.917Z,30.08
2023-03-03T04:43:07.747Z,28.85
2023-03-03T04:45:40.237Z,28.42
2023-03-03T04:48:15.299Z,32.35
2023-03-03T04:53:19.169Z,35.47
2023-03-03T04:55:53.964Z,34.40
2023-03-03T04:58:26.685Z,35.88
2023-03-03T05:01:00.603Z,35.20
2023-03-03T05:03:37.868Z,34.55
2023-03-03T05:06:09.714Z,32.30
2023-03-03T05:08:43.558Z,30.85
2023-03-03T05:11:16.178Z,30.97
2023-03-03T05:13:48.034Z,32.58
2023-03-03T05:16:25.895Z,32.28
2023-03-03T05:18:57.853Z,30.23
2023-03-03T05:21:29.848Z,29.48
2023-03-03T05:24:01.683Z,28.58
2023-03-03T05:26:33.640Z,31.25
2023-03-03T05:29:06.895Z,30.02
2023-03-03T05:31:39.678Z,30.08
2023-03-03T05:34:11.542Z,27.98
2023-03-03T05:36:43.246Z,29.42
2023-03-03T05:39:14.977Z,29.95
2023-03-03T05:41:46.813Z,28.98
2023-03-03T05:44:20.605Z,29.50
2023-03-03T05:46:52.586Z,22.00
2023-03-03T05:49:24.791Z,27.85
2023-03-03T05:51:56.477Z,28.67
2023-03-03T05:54:31.111Z,28.88
2023-03-03T05:59:35.038Z,28.55
2023-03-03T06:02:07.703Z,29.75
2023-03-03T06:04:43.492Z,28.70
2023-03-03T06:07:15.230Z,27.33
2023-03-03T06:09:47.016Z,29.77
2023-03-03T06:12:18.839Z,30.27
2023-03-03T06:14:52.194Z,31.50
2023-03-03T06:17:25.288Z,30.60
2023-03-03T06:19:58.139Z,27.60
2023-03-03T06:25:03.934Z,26.75
2023-03-03T06:27:36.229Z,26.52
2023-03-03T06:30:14.502Z,23.80
2023-03-03T06:32:46.667Z,24.40
2023-03-03T06:35:18.564Z,26.02
2023-03-03T06:37:50.933Z,23.95
2023-03-03T06:40:23.338Z,23.42
2023-03-03T06:42:56.596Z,24.08
2023-03-03T06:45:28.354Z,25.33
2023-03-03T06:48:00.266Z,25.13
2023-03-03T06:50:32.118Z,25.73
2023-03-03T06:53:15.578Z,25.58
2023-03-03T06:55:47.548Z,26.17
2023-03-03T06:58:21.845Z,25.70
2023-03-03T07:01:01.725Z,26.95
2023-03-03T07:03:34.803Z,27.20
2023-03-03T07:06:22.277Z,27.98
2023-03-03T07:08:55.527Z,28.70
2023-03-03T07:11:27.384Z,29.17
2023-03-03T07:13:59.187Z,29.02
2023-03-03T07:16:31.143Z,28.80
2023-03-03T07:19:05.307Z,27.92
2023-03-03T07:21:41.836Z,27.27
2023-03-03T07:24:27.226Z,28.83
2023-03-03T07:27:17.490Z,26.70
2023-03-03T07:29:51.827Z,27.67
2023-03-03T07:32:26.681Z,27.17
2023-03-03T07:37:42.444Z,26.52
2023-03-03T07:40:49.581Z,28.13
2023-03-03T07:43:39.067Z,25.83
2023-03-03T07:46:17.723Z,25.38
2023-03-03T07:48:50.370Z,24.98
2023-03-03T07:51:27.727Z,23.98
2023-03-03T07:54:28.717Z,23.95
2023-03-03T07:57:31.990Z,24.60
2023-03-03T08:00:15.036Z,23.58
2023-03-03T08:03:03.734Z,22.90
2023-03-03T08:05:40.865Z,21.45
2023-03-03T08:08:22.738Z,22.05
2023-03-03T08:10:56.252Z,21.83
2023-03-03T08:13:42.142Z,21.65
2023-03-03T08:16:13.881Z,21.00
2023-03-03T08:18:51.208Z,20.08
2023-03-03T08:21:26.757Z,19.90
2023-03-03T08:23:58.525Z,20.02
2023-03-03T08:26:30.241Z,21.20
2023-03-03T08:29:02.275Z,20.88
2023-03-03T08:31:41.606Z,20.58
2023-03-03T08:34:13.823Z,20.15
2023-03-03T08:36:47.428Z,19.88
2023-03-03T08:39:19.185Z,19.58
2023-03-03T08:41:50.999Z,19.02
2023-03-03T08:44:22.737Z,19.63
2023-03-03T08:46:54.934Z,18.00
2023-03-03T08:49:26.633Z,17.08
2023-03-03T08:51:59.144Z,19.13
2023-03-03T08:54:32.986Z,19.75
2023-03-03T08:57:08.070Z,18.58
2023-03-03T08:59:39.797Z,19.23
2023-03-03T09:02:11.604Z,18.45
2023-03-03T09:04:43.606Z,18.50
2023-03-03T09:07:15.357Z,17.73
2023-03-03T09:09:47.397Z,18.98
2023-03-03T09:12:36.087Z,19.10
2023-03-03T09:15:24.598Z,18.25
2023-03-03T09:18:22.764Z,17.40
2023-03-03T09:20:57.899Z,16.85
2023-03-03T09:23:37.335Z,17.35
2023-03-03T09:26:42.632Z,18.45
2023-03-03T09:29:14.279Z,16.65
2023-03-03T09:31:48.441Z,18.13
2023-03-03T09:34:42.824Z,17.58
2023-03-03T09:37:32.657Z,17.23
2023-03-03T09:40:31.768Z,16.13
2023-03-03T09:43:19.817Z,16.48
2023-03-03T09:46:08.358Z,16.35
2023-03-03T09:48:56.435Z,13.55
2023-03-03T09:51:57.872Z,13.45
2023-03-03T09:54:50.409Z,13.38
2023-03-03T09:58:04.472Z,14.13
2023-03-03T10:00:44.336Z,12.90
2023-03-03T10:03:56.233Z,13.93
2023-03-03T10:06:59.267Z,13.43
2023-03-03T10:09:33.738Z,14.13
2023-03-03T10:12:44.310Z,15.13
2023-03-03T10:15:30.494Z,14.07
2023-03-03T10:18:15.548Z,14.27
2023-03-03T10:21:18.245Z,15.00
2023-03-03T10:24:30.023Z,14.40
2023-03-03T10:30:42.698Z,11.27
2023-03-03T10:33:45.362Z,11.35
2023-03-03T10:36:57.565Z,10.77
2023-03-03T10:40:07.018Z,11.20
2023-03-03T10:42:53.897Z,10.30
2023-03-03T10:45:44.560Z,9.80
2023-03-03T10:49:08.173Z,9.93
2023-03-03T10:51:52.797Z,9.00
2023-03-03T10:55:00.116Z,8.45
2023-03-03T10:57:42.661Z,9.82
2023-03-03T11:00:22.807Z,8.95
2023-03-03T11:03:00.703Z,8.88
2023-03-03T11:05:40.482Z,9.25
2023-03-03T11:08:22.338Z,9.07
2023-03-03T11:11:18.182Z,9.00
2023-03-03T11:14:24.120Z,8.00
2023-03-03T11:17:24.753Z,8.15
2023-03-03T11:20:27.198Z,8.30
2023-03-03T11:23:21.515Z,7.65
2023-03-03T11:26:15.613Z,7.80
2023-03-03T11:29:32.273Z,7.82
2023-03-03T11:32:22.870Z,8.90
2023-03-03T11:35:16.244Z,8.35
2023-03-03T11:37:55.158Z,8.45
2023-03-03T11:40:49.104Z,8.40
2023-03-03T11:43:37.428Z,8.38
2023-03-03T11:46:16.015Z,8.95
2023-03-03T11:48:56.309Z,8.55
2023-03-03T11:51:43.549Z,9.07
2023-03-03T11:54:32.210Z,9.40
2023-03-03T11:57:15.661Z,9.85
2023-03-03T11:59:56.721Z,9.60
2023-03-03T12:02:37.184Z,9.10
2023-03-03T12:05:27.384Z,9.40
2023-03-03T12:08:41.016Z,9.73
2023-03-03T12:11:26.860Z,9.52
2023-03-03T12:14:05.164Z,8.98
2023-03-03T12:16:56.840Z,9.50
2023-03-03T12:19:28.448Z,7.60
2023-03-03T12:22:35.861Z,8.48
2023-03-03T12:25:32.652Z,9.55
2023-03-03T12:30:41.705Z,9.18
2023-03-03T12:33:33.656Z,8.75
2023-03-03T12:36:18.983Z,7.60
2023-03-03T12:39:12.012Z,8.13
2023-03-03T12:42:08.086Z,7.53
2023-03-03T12:44:59.493Z,7.93
2023-03-03T12:47:42.666Z,7.93
2023-03-03T12:50:38.908Z,9.32
2023-03-03T12:53:19.417Z,8.05
2023-03-03T12:56:01.640Z,7.20
2023-03-03T12:59:18.356Z,6.47
2023-03-03T13:02:18.032Z,6.70
2023-03-03T13:05:19.333Z,6.78
2023-03-03T13:08:09.828Z,7.07
2023-03-03T13:10:49.420Z,5.70
2023-03-03T13:13:42.550Z,7.55
2023-03-03T13:16:57.550Z,6.28
2023-03-03T13:19:41.435Z,6.70
2023-03-03T13:22:22.455Z,6.55
2023-03-03T13:25:06.107Z,6.60
2023-03-03T13:27:44.224Z,6.32
2023-03-03T13:30:33.051Z,5.90
2023-03-03T13:33:22.805Z,5.72
2023-03-03T13:36:09.149Z,6.15
2023-03-03T13:38:50.315Z,5.80
2023-03-03T13:41:43.032Z,5.60
2023-03-03T13:44:22.858Z,5.78
2023-03-03T13:47:04.211Z,5.95
2023-03-03T13:50:07.760Z,6.70
2023-03-03T13:52:50.377Z,6.25
2023-03-03T13:55:36.846Z,6.30
2023-03-03T13:58:20.629Z,6.78
2023-03-03T14:01:06.738Z,7.15
2023-03-03T14:03:55.634Z,6.30
2023-03-03T14:06:29.637Z,6.40
2023-03-03T14:09:09.719Z,6.30
2023-03-03T14:12:09.205Z,6.63
2023-03-03T14:14:46.676Z,6.70
2023-03-03T14:17:51.565Z,6.22
2023-03-03T14:20:40.385Z,5.60
2023-03-03T14:23:30.863Z,5.97
2023-03-03T14:26:07.965Z,6.43
2023-03-03T14:28:49.678Z,6.75
2023-03-03T14:31:33.048Z,5.80
2023-03-03T14:34:22.604Z,6.60
2023-03-03T14:37:08.485Z,6.80
2023-03-03T14:39:41.355Z,6.90
2023-03-03T14:42:34.193Z,7.07
2023-03-03T14:45:29.403Z,6.70
2023-03-03T14:48:19.123Z,7.10
2023-03-03T14:51:15.140Z,7.45
2023-03-03T14:53:50.089Z,7.22
2023-03-03T14:56:25.051Z,7.05
2023-03-03T14:59:29.153Z,7.88
2023-03-03T15:02:15.992Z,7.03
2023-03-03T15:04:51.834Z,7.45
2023-03-03T15:07:37.914Z,6.03
2023-03-03T15:10:12.982Z,7.68
2023-03-03T15:12:44.693Z,6.10
2023-03-03T15:15:24.945Z,7.10
2023-03-03T15:18:02.742Z,7.00
2023-03-03T15:20:53.209Z,7.03
2023-03-03T15:23:45.976Z,6.28
2023-03-03T15:26:36.951Z,6.07
2023-03-03T15:29:34.129Z,5.50
2023-03-03T15:32:29.658Z,6.38
2023-03-03T15:35:34.501Z,6.82
2023-03-03T15:38:27.532Z,6.65
2023-03-03T15:41:11.115Z,7.05
2023-03-03T15:44:04.435Z,7.05
2023-03-03T15:47:09.953Z,6.43
2023-03-03T15:50:00.150Z,7.10
2023-03-03T15:53:13.073Z,6.30
2023-03-03T15:56:23.795Z,6.93
2023-03-03T15:58:55.401Z,6.70
2023-03-03T16:01:36.303Z,6.63
2023-03-03T16:04:18.227Z,6.40
2023-03-03T16:07:06.260Z,6.20
2023-03-03T16:10:18.983Z,7.10
2023-03-03T16:12:54.539Z,6.38
2023-03-03T16:15:34.593Z,6.40
2023-03-03T16:18:33.520Z,6.20
2023-03-03T16:21:39.819Z,6.13
2023-03-03T16:24:11.517Z,5.95
2023-03-03T16:26:52.931Z,5.97
2023-03-03T16:29:50.956Z,5.63
2023-03-03T16:32:34.417Z,6.13
2023-03-03T16:35:22.336Z,6.22
2023-03-03T16:38:01.866Z,5.75
2023-03-03T16:40:50.478Z,5.57
2023-03-03T16:43:37.341Z,6.45
2023-03-03T16:46:26.994Z,6.78
2023-03-03T16:49:23.242Z,6.50
2023-03-03T16:52:12.164Z,6.97
2023-03-03T16:55:09.961Z,7.57
2023-03-03T16:58:35.471Z,6.78
2023-03-03T17:01:12.985Z,6.63
2023-03-03T17:03:48.766Z,6.53
2023-03-03T17:06:52.135Z,6.50
2023-03-03T17:09:32.840Z,7.20
2023-03-03T17:12:39.738Z,7.38
2023-03-03T17:15:38.683Z,6.65
2023-03-03T17:18:38.892Z,7.40
2023-03-03T17:21:49.653Z,7.35
2023-03-03T17:24:51.114Z,6.97
2023-03-03T17:27:51.223Z,6.82
2023-03-03T17:30:54.933Z,7.57
2023-03-03T17:34:04.890Z,7.45
2023-03-03T17:37:04.433Z,6.90
2023-03-03T17:40:13.760Z,7.45
2023-03-03T17:42:45.370Z,7.78
2023-03-03T17:45:22.177Z,7.35
2023-03-03T17:47:57.414Z,7.07
2023-03-03T17:50:56.996Z,7.85
2023-03-03T17:53:46.687Z,7.47
2023-03-03T17:56:31.445Z,7.60
2023-03-03T17:59:38.817Z,7.03
2023-03-03T18:02:35.371Z,8.00
2023-03-03T18:05:50.078Z,8.10
2023-03-03T18:08:49.900Z,7.38
2023-03-03T18:11:47.951Z,8.02
2023-03-03T18:14:30.168Z,7.40
2023-03-03T18:17:20.506Z,8.15
2023-03-03T18:20:09.632Z,8.23
2023-03-03T18:22:43.046Z,8.27
2023-03-03T18:25:17.895Z,8.60
2023-03-03T18:30:52.366Z,8.15
2023-03-03T18:33:37.401Z,9.18
2023-03-03T18:36:36.381Z,8.90
2023-03-03T18:39:14.164Z,8.60
2023-03-03T18:42:27.400Z,8.45
2023-03-03T18:45:22.987Z,8.23
2023-03-03T18:48:01.199Z,8.43
2023-03-03T18:50:44.271Z,8.63
2023-03-03T18:53:27.421Z,8.43
2023-03-03T18:56:03.954Z,8.85
2023-03-03T18:58:43.382Z,9.60
2023-03-03T19:01:41.599Z,8.73
2023-03-03T19:04:16.499Z,8.38
2023-03-03T19:06:48.134Z,7.97
2023-03-03T19:09:57.469Z,8.55
2023-03-03T19:12:51.801Z,8.52
2023-03-03T19:15:29.753Z,8.95
2023-03-03T19:18:21.149Z,8.80
2023-03-03T19:21:28.427Z,8.77
2023-03-03T19:24:03.663Z,9.63
2023-03-03T19:26:54.072Z,9.40
2023-03-03T19:29:52.939Z,9.52
2023-03-03T19:32:30.538Z,9.85
2023-03-03T19:35:20.509Z,9.25
2023-03-03T19:38:23.100Z,10.00
2023-03-03T19:41:14.746Z,9.00
2023-03-03T19:44:01.295Z,9.48
2023-03-03T19:47:03.210Z,9.15
2023-03-03T19:49:58.716Z,9.77
2023-03-03T19:52:45.143Z,10.25
2023-03-03T19:55:33.464Z,9.45
2023-03-03T19:58:22.797Z,9.27
2023-03-03T20:01:42.592Z,9.57
2023-03-03T20:04:52.272Z,9.38
2023-03-03T20:07:53.010Z,10.60
2023-03-03T20:11:02.709Z,10.25
2023-03-03T20:14:08.261Z,10.02
2023-03-03T20:16:42.819Z,10.40
2023-03-03T20:19:32.087Z,10.02
2023-03-03T20:22:34.748Z,9.85
2023-03-03T20:26:04.682Z,10.00
2023-03-03T20:28:41.121Z,10.05
2023-03-03T20:31:44.202Z,9.68
2023-03-03T20:34:38.504Z,10.40
2023-03-03T20:37:46.636Z,10.10
2023-03-03T20:40:51.895Z,9.73
2023-03-03T20:43:50.526Z,10.10
2023-03-03T20:46:37.427Z,10.35
2023-03-03T20:49:30.843Z,10.32
2023-03-03T20:52:18.850Z,11.32
2023-03-03T20:55:09.555Z,10.75
2023-03-03T20:58:00.227Z,11.07
2023-03-03T21:00:57.528Z,11.23
2023-03-03T21:03:38.889Z,10.70
2023-03-03T21:06:21.067Z,10.40
2023-03-03T21:08:58.941Z,10.60
2023-03-03T21:11:30.630Z,10.35
2023-03-03T21:14:32.361Z,9.98
2023-03-03T21:17:30.757Z,10.05
2023-03-03T21:20:28.032Z,10.60
2023-03-03T21:23:04.588Z,9.85
2023-03-03T21:25:44.117Z,9.27
2023-03-03T21:28:33.982Z,10.80
2023-03-03T21:31:20.126Z,10.02
2023-03-03T21:33:57.258Z,10.20
2023-03-03T21:36:35.250Z,11.15
2023-03-03T21:39:46.885Z,10.55
2023-03-03T21:42:42.447Z,10.93
2023-03-03T21:45:16.476Z,11.15
2023-03-03T21:47:48.364Z,11.07
2023-03-03T21:50:22.992Z,10.48
2023-03-03T21:52:56.640Z,10.93
2023-03-03T21:55:28.668Z,10.90
2023-03-03T21:58:00.375Z,11.30
2023-03-03T22:00:32.104Z,10.52
2023-03-03T22:03:04.061Z,10.77
2023-03-03T22:05:35.928Z,10.80
2023-03-03T22:08:08.008Z,11.32
2023-03-03T22:10:42.405Z,10.23
2023-03-03T22:13:20.091Z,10.02
2023-03-03T22:15:53.172Z,11.07
2023-03-03T22:18:27.913Z,11.32
2023-03-03T22:20:59.659Z,11.23
2023-03-03T22:23:34.548Z,11.88
2023-03-03T22:26:06.621Z,11.45
2023-03-03T22:28:38.335Z,10.95
2023-03-03T22:31:10.209Z,10.48
2023-03-03T22:33:42.148Z,11.77
2023-03-03T22:36:19.047Z,11.30
2023-03-03T22:38:50.916Z,12.05
2023-03-03T22:41:23.489Z,12.70
2023-03-03T22:43:55.209Z,12.75
2023-03-03T22:46:26.972Z,12.90
2023-03-03T22:48:59.529Z,13.57
2023-03-03T22:51:31.559Z,12.10
2023-03-03T22:54:03.465Z,12.40
2023-03-03T22:56:35.442Z,12.23
2023-03-03T22:59:10.060Z,12.05
2023-03-03T23:01:41.908Z,11.82
2023-03-03T23:04:13.660Z,12.20
2023-03-03T23:06:45.655Z,11.70
2023-03-03T23:09:18.897Z,12.15
2023-03-03T23:11:52.085Z,12.07
2023-03-03T23:14:23.808Z,12.35
2023-03-03T23:16:56.075Z,12.25
2023-03-03T23:19:29.988Z,12.50
2023-03-03T23:22:01.726Z,11.27
2023-03-03T23:24:33.484Z,12.98
2023-03-03T23:27:05.212Z,11.68
2023-03-03T23:29:38.359Z,13.98
2023-03-03T23:32:10.174Z,12.15
2023-03-03T23:34:41.952Z,13.32
2023-03-03T23:37:14.007Z,13.15
2023-03-03T23:39:49.446Z,12.27
2023-03-03T23:42:22.548Z,11.73
2023-03-03T23:44:54.540Z,12.48
2023-03-03T23:47:26.536Z,13.80
2023-03-03T23:49:58.260Z,12.93
2023-03-03T23:52:30.273Z,12.18
2023-03-03T23:55:03.181Z,11.55
2023-03-03T23:57:35.054Z,12.65
